ROTAER D-AMDT 27/20 Ver Mudanças

PLATAFORMA P-20 ( SBMM ) / MACAÉ, RJ 22 21 26S/040 05 025W
HD PRIV Petrobrás UTC-3 HJ 38 (125)
SBCW (CINDACTA 2)

RMK -

REGULAMENTOS PARA TRÁFEGO LOCAL
  1. OPS HEL TKOF DA AREA DE RESPONSABILIDADE DAS RDO ENCHOVA, RDO MARLIM E RDO ALBACORA DEVERAO APRESENTAR PVC NO AD DE ORIGEM NO CONTINENTE E HEL REALIZANDO FLT TRANSLADO BTN AS PLATAFORMAS PODERAO APRESENTAR PLN VIA RADIOTELEFONIA PARA AS RDO ENCHOVA, RDO MARLIM E RDO ALBACORA
TEMP (0)

Suplementos AIP (0)

NOTAM (1)

CNS

Z2105/18 R Z0895/18 03/12/2018 16:34
NDB MAR 375.00KHZ RETIRADO
REF: AIP-BRASIL ENR 6 L2/H2
ATCSMAC MACAE
IAC NDB A (HEL ONLY)
IAC RNAV (GNSS) 115


Nascer/Por do Sol

09:20

20:11


METAR

111300Z AUTO 04012KT 9999 NCD 22/16 Q1022 W23/S4=

TAF


Cartas (2)

IAC


SID



Rotas Preferenciais (0)